The Villages, Florida
Current Conditions -  °F | °C
As of 10:53 PM on Sunday 23 Nov 2014 (Local Time) from KLEE Reporting Station
Clear Clear  
Wind Chill: 70°   Ceiling: Unl
Heat Index: 70°   Visibility: 10mi
Dew Point: 68°   Wind: 8mph
Humidity: 93%   Direction: 150°SSE
Pressure: 29.93"   Gusts: NA
Location:  28.9417°N, 81.9658°W
Report Text: KLEE 240353Z AUTO 15007KT 10SM CLR 21/20 A2993 RMK AO2 PRESFR SLP133 T02110200 $
Loading
Personal Weather Stations






























Interactive Weather Map New forecast layout! Learn more

10-Day Weather Forecast

Advertisements
Track Severe Weather on mobile